Killona, Louisiana
Current Conditions -  °F | °C
As of 1:15 PM on Thursday 18 Dec 2014 (Local Time) from K1L0 Reporting Station
Overcast Overcast  
Wind Chill: 69°   Ceiling: 5000
Heat Index: 69°   Visibility: 10mi
Dew Point: 55°   Wind: 6mph
Humidity: 60%   Direction: 120°ESE
Pressure: 30.09"   Gusts: NA
Location:  30.01°N, 90.48°W
Report Text: K1L0 181915Z AUTO 12005KT 10SM SCT043 OVC050 21/13 A3009 RMK AO2 T02050126
Loading
Personal Weather Stations






























Interactive Weather Map New forecast layout! Learn more

10-Day Weather Forecast

Advertisements
Track Severe Weather on mobile